createdAt,value
2023-02-03T00:01:06.047Z,23.5
2023-02-03T00:06:24.536Z,23.5
2023-02-03T00:11:43.327Z,23.5
2023-02-03T00:17:02.046Z,23.5
2023-02-03T00:22:19.981Z,23.5
2023-02-03T00:27:38.619Z,23.5
2023-02-03T00:32:56.724Z,23.5
2023-02-03T00:37:59.311Z,23.5
2023-02-03T00:43:17.832Z,23.5
2023-02-03T00:48:36.340Z,23.5
2023-02-03T00:53:54.862Z,23.5
2023-02-03T00:59:13.097Z,23.5
2023-02-03T01:04:31.607Z,23.5
2023-02-03T01:09:50.099Z,23.6
2023-02-03T01:15:08.777Z,23.6
2023-02-03T01:20:27.861Z,23.6
2023-02-03T01:25:46.545Z,23.7
2023-02-03T01:31:05.083Z,23.7
2023-02-03T01:36:24.209Z,23.7
2023-02-03T01:41:42.993Z,23.7
2023-02-03T01:47:01.791Z,23.7
2023-02-03T01:52:19.937Z,23.7
2023-02-03T01:57:38.161Z,23.7
2023-02-03T02:02:56.676Z,23.7
2023-02-03T02:08:15.133Z,23.7
2023-02-03T02:13:33.060Z,23.7
2023-02-03T02:18:51.577Z,23.7
2023-02-03T02:24:10.054Z,23.7
2023-02-03T02:29:28.725Z,23.7
2023-02-03T02:34:46.679Z,23.7
2023-02-03T02:40:05.192Z,23.7
2023-02-03T02:45:23.402Z,23.7
2023-02-03T02:50:42.230Z,23.7
2023-02-03T02:56:00.439Z,23.7
2023-02-03T03:01:18.991Z,23.7
2023-02-03T03:06:37.570Z,23.7
2023-02-03T03:11:55.504Z,23.7
2023-02-03T03:17:14.264Z,23.7
2023-02-03T03:22:32.490Z,23.7
2023-02-03T03:27:51.150Z,23.7
2023-02-03T03:33:09.786Z,23.7
2023-02-03T03:38:28.303Z,23.7
2023-02-03T03:43:46.498Z,23.7
2023-02-03T03:49:05.260Z,23.7
2023-02-03T03:54:24.104Z,23.7
2023-02-03T03:59:42.490Z,23.7
2023-02-03T04:05:00.966Z,23.7
2023-02-03T04:10:19.495Z,23.7
2023-02-03T04:15:37.844Z,23.7
2023-02-03T04:20:56.323Z,23.7
2023-02-03T04:26:14.590Z,23.7
2023-02-03T04:31:33.213Z,23.7
2023-02-03T04:36:51.685Z,23.7
2023-02-03T04:42:10.185Z,23.7
2023-02-03T04:47:28.653Z,23.6
2023-02-03T04:52:46.876Z,23.6
2023-02-03T04:58:05.692Z,23.6
2023-02-03T05:03:26.540Z,23.6
2023-02-03T05:08:44.879Z,23.6
2023-02-03T05:14:02.821Z,23.5
2023-02-03T05:19:21.292Z,23.5
2023-02-03T05:24:39.802Z,23.5
2023-02-03T05:29:58.317Z,23.5
2023-02-03T05:35:16.788Z,23.5
2023-02-03T05:40:35.292Z,23.5
2023-02-03T05:45:54.121Z,23.5
2023-02-03T05:51:12.202Z,23.4
2023-02-03T05:56:30.700Z,23.5
2023-02-03T06:01:49.492Z,23.5
2023-02-03T06:07:07.722Z,23.4
2023-02-03T06:12:29.437Z,23.4
2023-02-03T06:17:47.725Z,23.4
2023-02-03T06:23:06.489Z,23.4
2023-02-03T06:28:25.062Z,23.5
2023-02-03T06:33:43.319Z,23.5
2023-02-03T06:39:01.852Z,23.6
2023-02-03T06:44:20.349Z,23.6
2023-02-03T06:49:39.138Z,23.6
2023-02-03T06:54:57.897Z,23.7
2023-02-03T07:00:19.426Z,23.7
2023-02-03T07:05:38.055Z,23.7
2023-02-03T07:10:56.411Z,23.7
2023-02-03T07:16:15.316Z,23.7
2023-02-03T07:21:33.607Z,23.8
2023-02-03T07:26:51.926Z,23.8
2023-02-03T07:32:10.572Z,23.8
2023-02-03T07:37:28.885Z,23.9
2023-02-03T07:42:47.505Z,24
2023-02-03T07:48:06.308Z,24
2023-02-03T07:53:24.839Z,24.1
2023-02-03T07:58:43.095Z,24.1
2023-02-03T08:04:01.885Z,24.2
2023-02-03T08:09:20.387Z,24.3
2023-02-03T08:14:38.926Z,24.3
2023-02-03T08:19:57.715Z,24.4
2023-02-03T08:25:17.785Z,24.5
2023-02-03T08:30:36.055Z,24.5
2023-02-03T08:35:54.799Z,24.6
2023-02-03T08:41:13.627Z,24.7
2023-02-03T08:46:31.828Z,24.7
2023-02-03T08:51:50.613Z,24.8
2023-02-03T08:57:09.424Z,24.8
2023-02-03T09:02:28.211Z,24.8
2023-02-03T09:07:46.738Z,24.9
2023-02-03T09:13:05.536Z,24.9
2023-02-03T09:18:24.072Z,25
2023-02-03T09:23:42.544Z,24.9
2023-02-03T09:29:00.990Z,24.9
2023-02-03T09:34:20.010Z,24.9
2023-02-03T09:39:38.907Z,25
2023-02-03T09:44:57.505Z,25
2023-02-03T09:50:16.011Z,25
2023-02-03T09:55:33.937Z,25
2023-02-03T10:00:52.935Z,25.1
2023-02-03T10:06:12.108Z,24.9
2023-02-03T10:11:30.890Z,25
2023-02-03T10:16:49.668Z,25
2023-02-03T10:22:08.675Z,25
2023-02-03T10:27:27.149Z,25.1
2023-02-03T10:32:45.931Z,25
2023-02-03T10:38:04.308Z,25
2023-02-03T10:43:22.795Z,25
2023-02-03T10:48:41.021Z,25.1
2023-02-03T10:53:59.567Z,25.1
2023-02-03T10:59:18.360Z,25
2023-02-03T11:04:21.526Z,24.9
2023-02-03T11:09:40.130Z,24.7
2023-02-03T11:14:58.899Z,24.6
2023-02-03T11:20:17.939Z,24.4
2023-02-03T11:25:36.840Z,24.4
2023-02-03T11:30:56.167Z,24.4
2023-02-03T11:36:15.362Z,24.4
2023-02-03T11:41:18.303Z,24.5
2023-02-03T11:46:36.908Z,24.5
2023-02-03T11:51:55.800Z,24.5
2023-02-03T11:57:14.806Z,24.5
2023-02-03T12:02:33.448Z,24.5
2023-02-03T12:07:52.272Z,24.5
2023-02-03T12:13:11.242Z,24.4
2023-02-03T12:18:29.985Z,24.4
2023-02-03T12:23:48.777Z,24.4
2023-02-03T12:29:07.620Z,24.4
2023-02-03T12:34:26.422Z,24.4
2023-02-03T12:39:44.938Z,24.4
2023-02-03T12:45:03.473Z,24.4
2023-02-03T12:50:22.303Z,24.4
2023-02-03T12:55:41.232Z,24.4
2023-02-03T13:01:00.197Z,24.4
2023-02-03T13:06:19.109Z,24.4
2023-02-03T13:11:38.658Z,24.4
2023-02-03T13:16:58.538Z,24.4
2023-02-03T13:22:17.917Z,24.4
2023-02-03T13:27:36.618Z,24.4
2023-02-03T13:32:55.741Z,24.3
2023-02-03T13:38:14.752Z,24.3
2023-02-03T13:43:39.444Z,24.3
2023-02-03T13:48:58.485Z,24.3
2023-02-03T13:54:17.710Z,24.3
2023-02-03T13:59:36.225Z,24.2
2023-02-03T14:04:55.391Z,24.2
2023-02-03T14:10:15.075Z,24.2
2023-02-03T14:15:33.989Z,24.2
2023-02-03T14:20:52.768Z,24.2
2023-02-03T14:26:11.524Z,24.2
2023-02-03T14:31:30.653Z,24.2
2023-02-03T14:36:49.353Z,24.2
2023-02-03T14:42:07.779Z,24.2
2023-02-03T14:47:26.557Z,24.1
2023-02-03T14:52:45.340Z,24.1
2023-02-03T14:58:03.957Z,24.1
2023-02-03T15:03:22.391Z,24
2023-02-03T15:08:40.935Z,24.1
2023-02-03T15:13:59.718Z,24.1
2023-02-03T15:19:17.959Z,24.1
2023-02-03T15:24:39.284Z,24.1
2023-02-03T15:29:57.806Z,24.1
2023-02-03T15:35:18.864Z,24.1
2023-02-03T15:40:37.740Z,24
2023-02-03T15:45:56.820Z,24.1
2023-02-03T15:51:15.316Z,24.1
2023-02-03T15:56:33.797Z,24
2023-02-03T16:01:53.190Z,24
2023-02-03T16:07:11.468Z,24
2023-02-03T16:12:30.259Z,24
2023-02-03T16:17:49.078Z,24
2023-02-03T16:23:07.931Z,24
2023-02-03T16:28:26.684Z,24
2023-02-03T16:33:45.271Z,24
2023-02-03T16:39:03.856Z,24
2023-02-03T16:44:22.091Z,24
2023-02-03T16:49:40.585Z,24
2023-02-03T16:54:58.791Z,24
2023-02-03T17:00:17.396Z,24
2023-02-03T17:05:35.891Z,24
2023-02-03T17:10:54.502Z,24
2023-02-03T17:16:16.247Z,24
2023-02-03T17:21:35.151Z,24
2023-02-03T17:26:53.940Z,24
2023-02-03T17:32:12.888Z,23.9
2023-02-03T17:37:31.551Z,23.9
2023-02-03T17:53:55.213Z,23.9
2023-02-03T17:59:14.116Z,23.9
2023-02-03T18:04:32.903Z,23.9
2023-02-03T18:09:51.328Z,23.8
2023-02-03T18:15:09.355Z,23.8
2023-02-03T18:20:29.238Z,23.8
2023-02-03T18:25:47.985Z,23.8
2023-02-03T18:31:06.612Z,23.8
2023-02-03T18:36:25.350Z,23.8
2023-02-03T18:41:44.148Z,23.8
2023-02-03T18:47:02.621Z,23.8
2023-02-03T18:52:21.225Z,23.7
2023-02-03T18:57:40.071Z,23.8
2023-02-03T19:02:58.868Z,23.7
2023-02-03T19:08:17.312Z,23.7
2023-02-03T19:13:35.368Z,23.7
2023-02-03T19:18:53.863Z,23.7
2023-02-03T19:24:12.383Z,23.7
2023-02-03T19:29:30.892Z,23.7
2023-02-03T19:34:49.540Z,23.7
2023-02-03T19:40:08.147Z,23.7
2023-02-03T19:45:27.004Z,23.7
2023-02-03T19:50:45.560Z,23.7
2023-02-03T19:56:05.073Z,23.7
2023-02-03T20:01:23.959Z,23.7
2023-02-03T20:06:42.518Z,23.7
2023-02-03T20:12:01.009Z,23.7
2023-02-03T20:17:19.254Z,23.7
2023-02-03T20:22:37.814Z,23.7
2023-02-03T20:27:57.163Z,23.7
2023-02-03T20:33:16.050Z,23.7
2023-02-03T20:38:34.853Z,23.7
2023-02-03T20:43:53.034Z,23.7
2023-02-03T20:49:12.832Z,23.7
2023-02-03T20:54:31.337Z,23.7
2023-02-03T20:59:50.750Z,23.7
2023-02-03T21:05:09.334Z,23.7
2023-02-03T21:10:28.982Z,23.7
2023-02-03T21:15:47.945Z,23.7
2023-02-03T21:21:06.613Z,23.7
2023-02-03T21:26:24.543Z,23.7
2023-02-03T21:31:42.826Z,23.7
2023-02-03T21:37:00.893Z,23.8
2023-02-03T21:42:19.153Z,23.8
2023-02-03T21:47:37.932Z,23.8
2023-02-03T21:52:56.710Z,23.8
2023-02-03T21:58:15.769Z,23.8
2023-02-03T22:03:34.266Z,23.7
2023-02-03T22:08:53.139Z,23.7
2023-02-03T22:14:11.980Z,23.7
2023-02-03T22:19:30.743Z,23.7
2023-02-03T22:24:49.280Z,23.7
2023-02-03T22:30:07.741Z,23.7
2023-02-03T22:35:26.493Z,23.7
2023-02-03T22:40:45.093Z,23.7
2023-02-03T22:46:03.621Z,23.7
2023-02-03T22:51:22.474Z,23.8
2023-02-03T22:56:41.084Z,23.7
2023-02-03T23:01:59.571Z,23.8
2023-02-03T23:07:18.594Z,23.8
2023-02-03T23:12:42.242Z,23.7
2023-02-03T23:18:01.756Z,23.7
2023-02-03T23:23:20.498Z,23.7
2023-02-03T23:28:39.243Z,23.7
2023-02-03T23:33:58.748Z,23.7
2023-02-03T23:39:17.661Z,23.7
2023-02-03T23:44:35.620Z,23.7
2023-02-03T23:49:56.303Z,23.7
2023-02-03T23:55:17.394Z,23.7
